createdAt,value
2022-08-09T13:06:13.089Z,73.10
2022-08-09T13:08:57.184Z,75.50
2022-08-09T13:11:28.742Z,76.60
2022-08-09T13:14:36.876Z,76.20
2022-08-09T13:16:46.116Z,76.80
2022-08-09T13:20:06.512Z,77.90
2022-08-09T13:22:36.094Z,78.60
2022-08-09T13:25:07.566Z,79.50
2022-08-09T13:27:40.254Z,80.70
2022-08-09T13:31:10.886Z,80.10
2022-08-09T13:33:12.027Z,80.80
2022-08-09T13:36:37.553Z,81.40
2022-08-09T13:38:55.667Z,80.70
2022-08-09T13:41:57.273Z,80.20
2022-08-09T13:44:09.059Z,80.00
2022-08-09T13:47:16.103Z,80.60
2022-08-09T13:49:33.979Z,80.40
2022-08-09T13:52:09.335Z,79.70
2022-08-09T13:54:42.861Z,80.80
2022-08-09T13:57:35.508Z,81.80
2022-08-09T14:00:22.705Z,80.70
2022-08-09T14:03:17.142Z,77.90
2022-08-09T14:05:58.266Z,77.70
2022-08-09T14:08:29.723Z,78.00
2022-08-09T14:10:57.376Z,78.00
2022-08-09T14:13:28.023Z,78.10
2022-08-09T14:16:16.015Z,77.80
2022-08-09T14:18:45.869Z,78.10
2022-08-09T14:21:23.103Z,79.50
2022-08-09T14:23:54.506Z,78.30
2022-08-09T14:26:25.463Z,76.80
2022-08-09T14:28:59.663Z,76.30
2022-08-09T14:31:49.657Z,77.20
2022-08-09T14:34:14.083Z,78.50
2022-08-09T14:36:44.567Z,79.10
2022-08-09T14:39:11.846Z,78.50
2022-08-09T14:41:40.201Z,77.90
2022-08-09T14:44:11.399Z,77.60
2022-08-09T14:47:03.244Z,76.60
2022-08-09T14:49:26.789Z,77.30
2022-08-09T14:51:58.898Z,79.70
2022-08-09T14:54:27.503Z,81.30
2022-08-09T14:56:58.945Z,79.60
2022-08-09T14:59:27.386Z,79.50
2022-08-09T15:01:55.793Z,80.30
2022-08-09T15:04:23.533Z,78.10
2022-08-09T15:06:51.371Z,79.60
2022-08-09T15:09:30.517Z,81.00
2022-08-09T15:12:08.206Z,80.80
2022-08-09T15:14:38.536Z,81.20
2022-08-09T15:17:09.948Z,80.60
2022-08-09T15:19:54.518Z,80.40
2022-08-09T15:22:25.852Z,80.90
2022-08-09T15:24:53.830Z,81.30
2022-08-09T15:27:21.944Z,81.20
2022-08-09T15:30:56.878Z,81.00
2022-08-09T15:32:36.235Z,80.70
2022-08-09T15:35:18.618Z,81.60
2022-08-09T15:37:57.197Z,82.00
2022-08-09T15:40:37.940Z,81.50
2022-08-09T15:43:13.768Z,80.00
2022-08-09T15:46:07.243Z,80.60
2022-08-09T15:51:02.296Z,81.20
2022-08-09T15:54:06.972Z,83.40
2022-08-09T15:56:36.487Z,82.40
2022-08-09T15:59:03.586Z,83.50
2022-08-09T16:01:35.828Z,84.00
2022-08-09T16:04:03.400Z,84.20
2022-08-09T16:06:35.291Z,83.90
2022-08-09T16:09:04.790Z,84.60
2022-08-09T16:11:33.189Z,85.00
2022-08-09T16:14:04.798Z,84.20
2022-08-09T16:16:38.893Z,82.90
2022-08-09T16:19:07.768Z,82.20
2022-08-09T16:21:35.500Z,83.60
2022-08-09T16:24:04.860Z,84.40
2022-08-09T16:29:13.465Z,83.30
2022-08-09T16:32:18.468Z,84.50
2022-08-09T16:34:29.263Z,84.70
2022-08-09T16:36:56.766Z,84.70
2022-08-09T16:39:25.794Z,85.30
2022-08-09T16:42:03.906Z,85.70
2022-08-09T16:44:32.404Z,85.70
2022-08-09T16:47:04.003Z,84.60
2022-08-09T16:50:33.076Z,84.50
2022-08-09T16:52:34.986Z,85.70
2022-08-09T16:55:02.745Z,86.40
2022-08-09T16:58:01.928Z,86.40
2022-08-09T17:00:17.250Z,86.30
2022-08-09T17:02:46.332Z,87.20
2022-08-09T17:05:14.245Z,87.20
2022-08-09T17:08:44.099Z,88.10
2022-08-09T17:10:34.372Z,89.10
2022-08-09T17:13:03.815Z,90.10
2022-08-09T17:16:00.061Z,90.60
2022-08-09T17:18:27.131Z,90.90
2022-08-09T17:20:57.549Z,91.20
2022-08-09T17:24:20.065Z,91.80
